sensor_id;sensor_type;location;lat;lon;timestamp;temperature;humidity
9125;DHT22;4597;48.730;9.114;2023-06-04T00:01:33;17.40;49.70
9125;DHT22;4597;48.730;9.114;2023-06-04T00:03:58;17.30;49.70
9125;DHT22;4597;48.730;9.114;2023-06-04T00:06:24;17.30;49.60
9125;DHT22;4597;48.730;9.114;2023-06-04T00:08:49;17.20;49.70
9125;DHT22;4597;48.730;9.114;2023-06-04T00:11:15;17.20;49.90
9125;DHT22;4597;48.730;9.114;2023-06-04T00:13:40;17.20;49.90
9125;DHT22;4597;48.730;9.114;2023-06-04T00:16:06;17.10;50.70
9125;DHT22;4597;48.730;9.114;2023-06-04T00:18:31;17.10;50.20
9125;DHT22;4597;48.730;9.114;2023-06-04T00:20:57;17.00;50.60
9125;DHT22;4597;48.730;9.114;2023-06-04T00:23:23;17.00;50.90
9125;DHT22;4597;48.730;9.114;2023-06-04T00:25:48;17.00;51.00
9125;DHT22;4597;48.730;9.114;2023-06-04T00:28:14;16.90;51.00
9125;DHT22;4597;48.730;9.114;2023-06-04T00:30:39;16.90;50.80
9125;DHT22;4597;48.730;9.114;2023-06-04T00:33:05;16.90;51.40
9125;DHT22;4597;48.730;9.114;2023-06-04T00:35:32;16.80;52.20
9125;DHT22;4597;48.730;9.114;2023-06-04T00:37:57;16.80;51.90
9125;DHT22;4597;48.730;9.114;2023-06-04T00:40:23;16.70;52.10
9125;DHT22;4597;48.730;9.114;2023-06-04T00:42:48;16.70;51.60
9125;DHT22;4597;48.730;9.114;2023-06-04T00:45:14;16.60;51.70
9125;DHT22;4597;48.730;9.114;2023-06-04T00:47:43;16.60;51.90
9125;DHT22;4597;48.730;9.114;2023-06-04T00:50:10;16.60;51.50
9125;DHT22;4597;48.730;9.114;2023-06-04T00:52:36;16.50;51.70
9125;DHT22;4597;48.730;9.114;2023-06-04T00:55:02;16.50;52.40
9125;DHT22;4597;48.730;9.114;2023-06-04T00:57:27;16.40;52.30
9125;DHT22;4597;48.730;9.114;2023-06-04T00:59:53;16.30;52.50
9125;DHT22;4597;48.730;9.114;2023-06-04T01:02:21;16.30;52.30
9125;DHT22;4597;48.730;9.114;2023-06-04T01:05:11;16.30;52.70
9125;DHT22;4597;48.730;9.114;2023-06-04T01:07:39;16.20;52.20
9125;DHT22;4597;48.730;9.114;2023-06-04T01:10:12;16.20;52.00
9125;DHT22;4597;48.730;9.114;2023-06-04T01:12:42;16.10;52.10
9125;DHT22;4597;48.730;9.114;2023-06-04T01:15:08;16.10;52.00
9125;DHT22;4597;48.730;9.114;2023-06-04T01:17:38;16.10;51.90
9125;DHT22;4597;48.730;9.114;2023-06-04T01:23:02;16.00;51.70
9125;DHT22;4597;48.730;9.114;2023-06-04T01:25:36;16.00;51.10
9125;DHT22;4597;48.730;9.114;2023-06-04T01:28:05;16.00;51.20
9125;DHT22;4597;48.730;9.114;2023-06-04T01:30:36;15.90;51.30
9125;DHT22;4597;48.730;9.114;2023-06-04T01:33:09;15.90;51.20
9125;DHT22;4597;48.730;9.114;2023-06-04T01:35:38;15.90;51.00
9125;DHT22;4597;48.730;9.114;2023-06-04T01:38:04;15.90;50.90
9125;DHT22;4597;48.730;9.114;2023-06-04T01:40:30;15.90;50.50
9125;DHT22;4597;48.730;9.114;2023-06-04T01:42:56;15.90;50.70
9125;DHT22;4597;48.730;9.114;2023-06-04T01:45:23;15.90;50.60
9125;DHT22;4597;48.730;9.114;2023-06-04T01:47:48;15.80;50.60
9125;DHT22;4597;48.730;9.114;2023-06-04T01:50:15;15.70;51.10
9125;DHT22;4597;48.730;9.114;2023-06-04T01:52:41;15.70;51.00
9125;DHT22;4597;48.730;9.114;2023-06-04T01:55:08;15.60;51.00
9125;DHT22;4597;48.730;9.114;2023-06-04T01:57:34;15.50;51.40
9125;DHT22;4597;48.730;9.114;2023-06-04T02:00:05;15.50;51.80
9125;DHT22;4597;48.730;9.114;2023-06-04T02:02:35;15.50;52.00
9125;DHT22;4597;48.730;9.114;2023-06-04T02:05:04;15.40;51.50
9125;DHT22;4597;48.730;9.114;2023-06-04T02:07:34;15.40;52.00
9125;DHT22;4597;48.730;9.114;2023-06-04T02:10:00;15.40;52.00
9125;DHT22;4597;48.730;9.114;2023-06-04T02:12:26;15.30;52.10
9125;DHT22;4597;48.730;9.114;2023-06-04T02:14:51;15.30;52.00
9125;DHT22;4597;48.730;9.114;2023-06-04T02:17:17;15.30;51.50
9125;DHT22;4597;48.730;9.114;2023-06-04T02:19:43;15.20;51.60
9125;DHT22;4597;48.730;9.114;2023-06-04T02:22:19;15.20;52.20
9125;DHT22;4597;48.730;9.114;2023-06-04T02:24:46;15.20;52.70
9125;DHT22;4597;48.730;9.114;2023-06-04T02:27:13;15.20;52.40
9125;DHT22;4597;48.730;9.114;2023-06-04T02:29:40;15.10;52.30
9125;DHT22;4597;48.730;9.114;2023-06-04T02:32:06;15.10;54.10
9125;DHT22;4597;48.730;9.114;2023-06-04T02:34:32;15.10;55.90
9125;DHT22;4597;48.730;9.114;2023-06-04T02:36:59;15.10;57.20
9125;DHT22;4597;48.730;9.114;2023-06-04T02:39:25;15.00;57.30
9125;DHT22;4597;48.730;9.114;2023-06-04T02:41:50;15.00;58.20
9125;DHT22;4597;48.730;9.114;2023-06-04T02:44:16;14.90;55.00
9125;DHT22;4597;48.730;9.114;2023-06-04T02:46:41;14.90;54.30
9125;DHT22;4597;48.730;9.114;2023-06-04T02:49:07;14.80;53.10
9125;DHT22;4597;48.730;9.114;2023-06-04T02:51:32;14.70;53.20
9125;DHT22;4597;48.730;9.114;2023-06-04T02:53:58;14.80;53.00
9125;DHT22;4597;48.730;9.114;2023-06-04T02:56:24;14.80;53.00
9125;DHT22;4597;48.730;9.114;2023-06-04T02:58:51;14.80;52.10
9125;DHT22;4597;48.730;9.114;2023-06-04T03:01:22;14.80;52.00
9125;DHT22;4597;48.730;9.114;2023-06-04T03:03:48;14.80;52.20
9125;DHT22;4597;48.730;9.114;2023-06-04T03:06:14;14.70;53.00
9125;DHT22;4597;48.730;9.114;2023-06-04T03:08:40;14.70;54.50
9125;DHT22;4597;48.730;9.114;2023-06-04T03:11:06;14.70;54.70
9125;DHT22;4597;48.730;9.114;2023-06-04T03:13:32;14.60;56.70
9125;DHT22;4597;48.730;9.114;2023-06-04T03:15:58;14.60;58.10
9125;DHT22;4597;48.730;9.114;2023-06-04T03:18:26;14.60;58.10
9125;DHT22;4597;48.730;9.114;2023-06-04T03:20:52;14.50;56.80
9125;DHT22;4597;48.730;9.114;2023-06-04T03:23:19;14.50;57.50
9125;DHT22;4597;48.730;9.114;2023-06-04T03:25:44;14.40;58.90
9125;DHT22;4597;48.730;9.114;2023-06-04T03:28:10;14.40;58.80
9125;DHT22;4597;48.730;9.114;2023-06-04T03:30:35;14.40;56.70
9125;DHT22;4597;48.730;9.114;2023-06-04T03:33:01;14.50;56.50
9125;DHT22;4597;48.730;9.114;2023-06-04T03:35:27;14.50;55.10
9125;DHT22;4597;48.730;9.114;2023-06-04T03:37:52;14.50;54.50
9125;DHT22;4597;48.730;9.114;2023-06-04T03:40:18;14.40;53.60
9125;DHT22;4597;48.730;9.114;2023-06-04T03:42:43;14.40;53.70
9125;DHT22;4597;48.730;9.114;2023-06-04T03:45:09;14.40;53.50
9125;DHT22;4597;48.730;9.114;2023-06-04T03:47:35;14.40;53.70
9125;DHT22;4597;48.730;9.114;2023-06-04T03:50:01;14.40;54.20
9125;DHT22;4597;48.730;9.114;2023-06-04T03:52:27;14.30;54.50
9125;DHT22;4597;48.730;9.114;2023-06-04T03:54:52;14.30;55.30
9125;DHT22;4597;48.730;9.114;2023-06-04T03:57:18;14.20;56.70
9125;DHT22;4597;48.730;9.114;2023-06-04T03:59:44;14.20;58.70
9125;DHT22;4597;48.730;9.114;2023-06-04T04:02:09;14.20;60.20
9125;DHT22;4597;48.730;9.114;2023-06-04T04:04:35;14.20;61.70
9125;DHT22;4597;48.730;9.114;2023-06-04T04:07:00;14.10;59.20
9125;DHT22;4597;48.730;9.114;2023-06-04T04:09:26;14.20;59.40
9125;DHT22;4597;48.730;9.114;2023-06-04T04:11:51;14.20;57.50
9125;DHT22;4597;48.730;9.114;2023-06-04T04:14:17;14.20;57.10
9125;DHT22;4597;48.730;9.114;2023-06-04T04:16:42;14.20;57.00
9125;DHT22;4597;48.730;9.114;2023-06-04T04:19:08;14.20;56.70
9125;DHT22;4597;48.730;9.114;2023-06-04T04:21:37;14.20;57.90
9125;DHT22;4597;48.730;9.114;2023-06-04T04:24:03;14.20;60.00
9125;DHT22;4597;48.730;9.114;2023-06-04T04:26:29;14.20;63.10
9125;DHT22;4597;48.730;9.114;2023-06-04T04:28:55;14.10;63.90
9125;DHT22;4597;48.730;9.114;2023-06-04T04:31:29;14.10;64.90
9125;DHT22;4597;48.730;9.114;2023-06-04T04:33:55;14.00;64.80
9125;DHT22;4597;48.730;9.114;2023-06-04T04:36:21;14.10;65.90
9125;DHT22;4597;48.730;9.114;2023-06-04T04:38:47;14.10;65.70
9125;DHT22;4597;48.730;9.114;2023-06-04T04:41:22;14.20;66.40
9125;DHT22;4597;48.730;9.114;2023-06-04T04:43:53;14.20;65.20
9125;DHT22;4597;48.730;9.114;2023-06-04T04:46:18;14.20;67.20
9125;DHT22;4597;48.730;9.114;2023-06-04T04:48:44;14.30;68.20
9125;DHT22;4597;48.730;9.114;2023-06-04T04:51:09;14.30;68.60
9125;DHT22;4597;48.730;9.114;2023-06-04T04:53:35;14.30;67.20
9125;DHT22;4597;48.730;9.114;2023-06-04T04:56:01;14.20;67.80
9125;DHT22;4597;48.730;9.114;2023-06-04T04:58:26;14.20;70.10
9125;DHT22;4597;48.730;9.114;2023-06-04T05:00:51;14.20;71.10
9125;DHT22;4597;48.730;9.114;2023-06-04T05:03:17;14.20;73.00
9125;DHT22;4597;48.730;9.114;2023-06-04T05:05:43;14.20;74.10
9125;DHT22;4597;48.730;9.114;2023-06-04T05:08:09;14.10;76.00
9125;DHT22;4597;48.730;9.114;2023-06-04T05:10:34;14.20;76.50
9125;DHT22;4597;48.730;9.114;2023-06-04T05:13:01;14.20;77.10
9125;DHT22;4597;48.730;9.114;2023-06-04T05:15:26;14.20;80.10
9125;DHT22;4597;48.730;9.114;2023-06-04T05:17:52;14.20;81.70
9125;DHT22;4597;48.730;9.114;2023-06-04T05:20:19;14.20;84.40
9125;DHT22;4597;48.730;9.114;2023-06-04T05:22:46;14.30;82.90
9125;DHT22;4597;48.730;9.114;2023-06-04T05:25:12;14.30;86.30
9125;DHT22;4597;48.730;9.114;2023-06-04T05:27:37;14.30;90.70
9125;DHT22;4597;48.730;9.114;2023-06-04T05:30:04;14.40;90.30
9125;DHT22;4597;48.730;9.114;2023-06-04T05:32:29;14.30;90.80
9125;DHT22;4597;48.730;9.114;2023-06-04T05:34:58;14.40;88.00
9125;DHT22;4597;48.730;9.114;2023-06-04T05:37:25;14.40;88.50
9125;DHT22;4597;48.730;9.114;2023-06-04T05:39:52;14.40;92.60
9125;DHT22;4597;48.730;9.114;2023-06-04T05:42:18;14.40;93.90
9125;DHT22;4597;48.730;9.114;2023-06-04T05:44:44;14.40;92.70
9125;DHT22;4597;48.730;9.114;2023-06-04T05:47:11;14.40;97.00
9125;DHT22;4597;48.730;9.114;2023-06-04T05:49:36;14.40;97.50
9125;DHT22;4597;48.730;9.114;2023-06-04T05:52:02;14.40;93.60
9125;DHT22;4597;48.730;9.114;2023-06-04T05:54:29;14.50;86.00
9125;DHT22;4597;48.730;9.114;2023-06-04T05:56:55;14.50;86.80
9125;DHT22;4597;48.730;9.114;2023-06-04T05:59:21;14.50;83.40
9125;DHT22;4597;48.730;9.114;2023-06-04T06:01:46;14.60;80.30
9125;DHT22;4597;48.730;9.114;2023-06-04T06:04:13;14.70;82.80
9125;DHT22;4597;48.730;9.114;2023-06-04T06:06:39;14.70;76.00
9125;DHT22;4597;48.730;9.114;2023-06-04T06:09:04;14.80;77.60
9125;DHT22;4597;48.730;9.114;2023-06-04T06:11:30;14.90;77.30
9125;DHT22;4597;48.730;9.114;2023-06-04T06:13:56;15.00;73.00
9125;DHT22;4597;48.730;9.114;2023-06-04T06:16:21;14.90;71.10
9125;DHT22;4597;48.730;9.114;2023-06-04T06:18:47;15.00;71.90
9125;DHT22;4597;48.730;9.114;2023-06-04T06:21:13;15.10;71.50
9125;DHT22;4597;48.730;9.114;2023-06-04T06:23:38;15.10;76.90
9125;DHT22;4597;48.730;9.114;2023-06-04T06:26:03;15.20;76.20
9125;DHT22;4597;48.730;9.114;2023-06-04T06:28:34;15.20;76.90
9125;DHT22;4597;48.730;9.114;2023-06-04T06:31:01;15.20;74.20
9125;DHT22;4597;48.730;9.114;2023-06-04T06:33:27;15.30;73.00
9125;DHT22;4597;48.730;9.114;2023-06-04T06:35:52;15.30;71.20
9125;DHT22;4597;48.730;9.114;2023-06-04T06:38:18;15.30;72.20
9125;DHT22;4597;48.730;9.114;2023-06-04T06:40:43;15.30;72.10
9125;DHT22;4597;48.730;9.114;2023-06-04T06:43:09;15.30;74.10
9125;DHT22;4597;48.730;9.114;2023-06-04T06:45:36;15.40;77.60
9125;DHT22;4597;48.730;9.114;2023-06-04T06:48:01;15.40;76.20
9125;DHT22;4597;48.730;9.114;2023-06-04T06:50:27;15.50;71.80
9125;DHT22;4597;48.730;9.114;2023-06-04T06:52:52;15.50;70.80
9125;DHT22;4597;48.730;9.114;2023-06-04T06:55:19;15.60;71.20
9125;DHT22;4597;48.730;9.114;2023-06-04T06:57:44;15.70;71.40
9125;DHT22;4597;48.730;9.114;2023-06-04T07:00:10;15.80;70.80
9125;DHT22;4597;48.730;9.114;2023-06-04T07:02:36;15.90;71.20
9125;DHT22;4597;48.730;9.114;2023-06-04T07:05:02;16.00;69.60
9125;DHT22;4597;48.730;9.114;2023-06-04T07:07:27;16.00;71.70
9125;DHT22;4597;48.730;9.114;2023-06-04T07:09:53;16.10;72.70
9125;DHT22;4597;48.730;9.114;2023-06-04T07:12:18;16.20;68.20
9125;DHT22;4597;48.730;9.114;2023-06-04T07:14:44;16.30;67.40
9125;DHT22;4597;48.730;9.114;2023-06-04T07:17:10;16.40;67.80
9125;DHT22;4597;48.730;9.114;2023-06-04T07:19:36;16.40;65.20
9125;DHT22;4597;48.730;9.114;2023-06-04T07:22:01;16.50;65.90
9125;DHT22;4597;48.730;9.114;2023-06-04T07:24:27;16.50;64.90
9125;DHT22;4597;48.730;9.114;2023-06-04T07:26:52;16.50;65.20
9125;DHT22;4597;48.730;9.114;2023-06-04T07:29:18;16.60;66.20
9125;DHT22;4597;48.730;9.114;2023-06-04T07:31:43;16.70;64.40
9125;DHT22;4597;48.730;9.114;2023-06-04T07:34:09;16.80;63.60
9125;DHT22;4597;48.730;9.114;2023-06-04T07:36:34;16.80;63.40
9125;DHT22;4597;48.730;9.114;2023-06-04T07:39:00;16.80;64.20
9125;DHT22;4597;48.730;9.114;2023-06-04T07:41:25;16.80;63.40
9125;DHT22;4597;48.730;9.114;2023-06-04T07:43:51;16.90;63.40
9125;DHT22;4597;48.730;9.114;2023-06-04T07:46:17;16.80;62.90
9125;DHT22;4597;48.730;9.114;2023-06-04T07:48:44;16.80;64.30
9125;DHT22;4597;48.730;9.114;2023-06-04T07:51:10;16.70;64.20
9125;DHT22;4597;48.730;9.114;2023-06-04T07:53:37;16.70;64.60
9125;DHT22;4597;48.730;9.114;2023-06-04T07:56:03;16.70;64.80
9125;DHT22;4597;48.730;9.114;2023-06-04T07:58:29;16.70;64.90
9125;DHT22;4597;48.730;9.114;2023-06-04T08:00:56;16.80;64.50
9125;DHT22;4597;48.730;9.114;2023-06-04T08:03:22;16.80;65.00
9125;DHT22;4597;48.730;9.114;2023-06-04T08:05:47;16.80;65.20
9125;DHT22;4597;48.730;9.114;2023-06-04T08:08:13;16.90;65.40
9125;DHT22;4597;48.730;9.114;2023-06-04T08:10:42;17.00;64.00
9125;DHT22;4597;48.730;9.114;2023-06-04T08:13:08;17.00;63.80
9125;DHT22;4597;48.730;9.114;2023-06-04T08:15:35;17.10;64.80
9125;DHT22;4597;48.730;9.114;2023-06-04T08:18:00;17.10;65.10
9125;DHT22;4597;48.730;9.114;2023-06-04T08:20:26;17.20;64.60
9125;DHT22;4597;48.730;9.114;2023-06-04T08:22:51;17.30;65.40
9125;DHT22;4597;48.730;9.114;2023-06-04T08:25:17;17.40;63.70
9125;DHT22;4597;48.730;9.114;2023-06-04T08:27:43;17.40;64.90
9125;DHT22;4597;48.730;9.114;2023-06-04T08:30:09;17.60;65.20
9125;DHT22;4597;48.730;9.114;2023-06-04T08:32:35;17.70;65.60
9125;DHT22;4597;48.730;9.114;2023-06-04T08:35:00;17.80;65.00
9125;DHT22;4597;48.730;9.114;2023-06-04T08:37:26;17.80;64.70
9125;DHT22;4597;48.730;9.114;2023-06-04T08:39:51;17.90;62.10
9125;DHT22;4597;48.730;9.114;2023-06-04T08:42:31;17.90;62.10
9125;DHT22;4597;48.730;9.114;2023-06-04T08:45:00;18.00;62.20
9125;DHT22;4597;48.730;9.114;2023-06-04T08:47:26;18.00;62.40
9125;DHT22;4597;48.730;9.114;2023-06-04T08:49:56;18.10;62.00
9125;DHT22;4597;48.730;9.114;2023-06-04T08:52:24;18.20;61.30
9125;DHT22;4597;48.730;9.114;2023-06-04T08:54:49;18.30;60.10
9125;DHT22;4597;48.730;9.114;2023-06-04T08:57:18;18.30;60.90
9125;DHT22;4597;48.730;9.114;2023-06-04T08:59:48;18.50;62.00
9125;DHT22;4597;48.730;9.114;2023-06-04T09:02:16;18.50;60.20
9125;DHT22;4597;48.730;9.114;2023-06-04T09:04:44;18.60;60.30
9125;DHT22;4597;48.730;9.114;2023-06-04T09:07:13;18.60;60.20
9125;DHT22;4597;48.730;9.114;2023-06-04T09:09:40;18.70;60.50
9125;DHT22;4597;48.730;9.114;2023-06-04T09:12:13;18.70;62.80
9125;DHT22;4597;48.730;9.114;2023-06-04T09:14:41;18.90;61.30
9125;DHT22;4597;48.730;9.114;2023-06-04T09:17:06;19.00;59.30
9125;DHT22;4597;48.730;9.114;2023-06-04T09:19:32;19.10;58.90
9125;DHT22;4597;48.730;9.114;2023-06-04T09:21:59;19.10;58.10
9125;DHT22;4597;48.730;9.114;2023-06-04T09:24:41;19.20;57.30
9125;DHT22;4597;48.730;9.114;2023-06-04T09:27:15;19.30;58.70
9125;DHT22;4597;48.730;9.114;2023-06-04T09:29:54;19.30;60.10
9125;DHT22;4597;48.730;9.114;2023-06-04T09:32:27;19.40;59.70
9125;DHT22;4597;48.730;9.114;2023-06-04T09:35:25;19.60;56.70
9125;DHT22;4597;48.730;9.114;2023-06-04T09:37:53;19.60;55.60
9125;DHT22;4597;48.730;9.114;2023-06-04T09:40:19;19.60;57.00
9125;DHT22;4597;48.730;9.114;2023-06-04T09:42:46;19.70;57.10
9125;DHT22;4597;48.730;9.114;2023-06-04T09:45:12;19.90;57.40
9125;DHT22;4597;48.730;9.114;2023-06-04T09:47:43;20.00;55.60
9125;DHT22;4597;48.730;9.114;2023-06-04T09:50:11;20.20;54.70
9125;DHT22;4597;48.730;9.114;2023-06-04T09:52:37;20.20;54.50
9125;DHT22;4597;48.730;9.114;2023-06-04T09:55:15;20.20;52.90
9125;DHT22;4597;48.730;9.114;2023-06-04T09:57:48;20.30;52.00
9125;DHT22;4597;48.730;9.114;2023-06-04T10:00:18;20.30;53.70
9125;DHT22;4597;48.730;9.114;2023-06-04T10:02:46;20.30;52.00
9125;DHT22;4597;48.730;9.114;2023-06-04T10:05:13;20.40;51.80
9125;DHT22;4597;48.730;9.114;2023-06-04T10:07:44;20.40;51.00
9125;DHT22;4597;48.730;9.114;2023-06-04T10:10:30;20.50;52.00
9125;DHT22;4597;48.730;9.114;2023-06-04T10:13:08;20.60;50.40
9125;DHT22;4597;48.730;9.114;2023-06-04T10:15:35;20.70;49.10
9125;DHT22;4597;48.730;9.114;2023-06-04T10:18:02;20.80;47.90
9125;DHT22;4597;48.730;9.114;2023-06-04T10:20:28;20.80;48.80
9125;DHT22;4597;48.730;9.114;2023-06-04T10:22:54;20.90;47.50
9125;DHT22;4597;48.730;9.114;2023-06-04T10:25:20;20.90;49.10
9125;DHT22;4597;48.730;9.114;2023-06-04T10:27:46;21.00;46.30
9125;DHT22;4597;48.730;9.114;2023-06-04T10:30:12;21.10;48.00
9125;DHT22;4597;48.730;9.114;2023-06-04T10:32:38;21.30;48.30
9125;DHT22;4597;48.730;9.114;2023-06-04T10:35:07;21.30;44.80
9125;DHT22;4597;48.730;9.114;2023-06-04T10:37:33;21.30;45.30
9125;DHT22;4597;48.730;9.114;2023-06-04T10:39:59;21.40;45.60
9125;DHT22;4597;48.730;9.114;2023-06-04T10:42:25;21.40;45.80
9125;DHT22;4597;48.730;9.114;2023-06-04T10:44:53;21.60;43.20
9125;DHT22;4597;48.730;9.114;2023-06-04T10:47:25;21.70;42.10
9125;DHT22;4597;48.730;9.114;2023-06-04T10:49:53;21.80;41.10
9125;DHT22;4597;48.730;9.114;2023-06-04T10:52:19;21.80;41.50
9125;DHT22;4597;48.730;9.114;2023-06-04T10:54:46;21.90;41.00
9125;DHT22;4597;48.730;9.114;2023-06-04T10:57:17;21.90;41.40
9125;DHT22;4597;48.730;9.114;2023-06-04T10:59:59;21.90;40.50
9125;DHT22;4597;48.730;9.114;2023-06-04T11:02:25;21.80;40.00
9125;DHT22;4597;48.730;9.114;2023-06-04T11:05:05;21.90;40.60
9125;DHT22;4597;48.730;9.114;2023-06-04T11:07:48;21.90;42.70
9125;DHT22;4597;48.730;9.114;2023-06-04T11:10:15;22.10;39.70
9125;DHT22;4597;48.730;9.114;2023-06-04T11:12:49;22.20;39.10
9125;DHT22;4597;48.730;9.114;2023-06-04T11:15:18;22.30;37.70
9125;DHT22;4597;48.730;9.114;2023-06-04T11:17:54;22.40;37.70
9125;DHT22;4597;48.730;9.114;2023-06-04T11:20:21;22.50;37.00
9125;DHT22;4597;48.730;9.114;2023-06-04T11:22:54;22.50;37.50
9125;DHT22;4597;48.730;9.114;2023-06-04T11:25:21;22.60;37.30
9125;DHT22;4597;48.730;9.114;2023-06-04T11:27:48;22.70;36.00
9125;DHT22;4597;48.730;9.114;2023-06-04T11:30:14;22.80;34.60
9125;DHT22;4597;48.730;9.114;2023-06-04T11:32:40;22.90;37.10
9125;DHT22;4597;48.730;9.114;2023-06-04T11:35:06;23.00;36.90
9125;DHT22;4597;48.730;9.114;2023-06-04T11:37:31;23.00;35.00
9125;DHT22;4597;48.730;9.114;2023-06-04T11:39:58;23.00;35.70
9125;DHT22;4597;48.730;9.114;2023-06-04T11:42:23;23.10;36.20
9125;DHT22;4597;48.730;9.114;2023-06-04T11:44:58;23.20;37.20
9125;DHT22;4597;48.730;9.114;2023-06-04T11:47:24;23.30;35.50
9125;DHT22;4597;48.730;9.114;2023-06-04T11:49:56;23.50;36.20
9125;DHT22;4597;48.730;9.114;2023-06-04T11:52:22;23.50;34.50
9125;DHT22;4597;48.730;9.114;2023-06-04T11:54:48;23.70;32.40
9125;DHT22;4597;48.730;9.114;2023-06-04T11:57:14;23.70;32.00
9125;DHT22;4597;48.730;9.114;2023-06-04T11:59:39;23.70;32.90
9125;DHT22;4597;48.730;9.114;2023-06-04T12:02:07;23.80;34.00
9125;DHT22;4597;48.730;9.114;2023-06-04T12:04:32;23.90;31.20
9125;DHT22;4597;48.730;9.114;2023-06-04T12:06:59;23.90;31.90
9125;DHT22;4597;48.730;9.114;2023-06-04T12:09:28;24.00;30.60
9125;DHT22;4597;48.730;9.114;2023-06-04T12:12:00;24.00;31.50
9125;DHT22;4597;48.730;9.114;2023-06-04T12:14:26;24.10;32.00
9125;DHT22;4597;48.730;9.114;2023-06-04T12:16:59;24.20;34.30
9125;DHT22;4597;48.730;9.114;2023-06-04T12:19:25;24.30;33.00
9125;DHT22;4597;48.730;9.114;2023-06-04T12:22:04;24.40;30.80
9125;DHT22;4597;48.730;9.114;2023-06-04T12:24:32;24.40;31.60
9125;DHT22;4597;48.730;9.114;2023-06-04T12:27:07;24.50;31.50
9125;DHT22;4597;48.730;9.114;2023-06-04T12:29:36;24.60;31.00
9125;DHT22;4597;48.730;9.114;2023-06-04T12:32:04;24.70;31.70
9125;DHT22;4597;48.730;9.114;2023-06-04T12:34:31;24.80;29.70
9125;DHT22;4597;48.730;9.114;2023-06-04T12:36:57;24.90;29.70
9125;DHT22;4597;48.730;9.114;2023-06-04T12:39:22;24.90;30.00
9125;DHT22;4597;48.730;9.114;2023-06-04T12:41:48;25.00;29.70
9125;DHT22;4597;48.730;9.114;2023-06-04T12:44:14;24.90;29.40
9125;DHT22;4597;48.730;9.114;2023-06-04T12:46:39;25.00;30.20
9125;DHT22;4597;48.730;9.114;2023-06-04T12:49:05;25.00;29.70
9125;DHT22;4597;48.730;9.114;2023-06-04T12:51:31;25.10;31.00
9125;DHT22;4597;48.730;9.114;2023-06-04T12:53:57;25.40;30.10
9125;DHT22;4597;48.730;9.114;2023-06-04T12:56:22;25.50;29.80
9125;DHT22;4597;48.730;9.114;2023-06-04T12:58:48;25.60;30.00
9125;DHT22;4597;48.730;9.114;2023-06-04T13:01:14;25.70;28.30
9125;DHT22;4597;48.730;9.114;2023-06-04T13:03:41;25.90;29.70
9125;DHT22;4597;48.730;9.114;2023-06-04T13:06:06;26.00;29.00
9125;DHT22;4597;48.730;9.114;2023-06-04T13:08:33;26.10;28.30
9125;DHT22;4597;48.730;9.114;2023-06-04T13:10:59;26.10;26.90
9125;DHT22;4597;48.730;9.114;2023-06-04T13:13:24;26.10;27.40
9125;DHT22;4597;48.730;9.114;2023-06-04T13:15:50;26.30;28.00
9125;DHT22;4597;48.730;9.114;2023-06-04T13:18:15;26.50;26.70
9125;DHT22;4597;48.730;9.114;2023-06-04T13:20:41;26.60;27.00
9125;DHT22;4597;48.730;9.114;2023-06-04T13:23:07;26.50;26.00
9125;DHT22;4597;48.730;9.114;2023-06-04T13:25:33;26.60;25.60
9125;DHT22;4597;48.730;9.114;2023-06-04T13:28:00;26.80;26.40
9125;DHT22;4597;48.730;9.114;2023-06-04T13:30:25;27.00;26.80
9125;DHT22;4597;48.730;9.114;2023-06-04T13:32:52;27.30;26.10
9125;DHT22;4597;48.730;9.114;2023-06-04T13:35:17;27.50;26.50
9125;DHT22;4597;48.730;9.114;2023-06-04T13:37:43;27.80;25.30
9125;DHT22;4597;48.730;9.114;2023-06-04T13:40:09;28.00;25.60
9125;DHT22;4597;48.730;9.114;2023-06-04T13:42:34;27.90;22.90
9125;DHT22;4597;48.730;9.114;2023-06-04T13:45:00;28.00;24.20
9125;DHT22;4597;48.730;9.114;2023-06-04T13:47:26;28.20;24.90
9125;DHT22;4597;48.730;9.114;2023-06-04T13:49:52;28.60;23.40
9125;DHT22;4597;48.730;9.114;2023-06-04T13:52:18;28.70;22.80
9125;DHT22;4597;48.730;9.114;2023-06-04T13:54:43;28.70;23.30
9125;DHT22;4597;48.730;9.114;2023-06-04T13:57:09;28.70;21.30
9125;DHT22;4597;48.730;9.114;2023-06-04T13:59:38;28.80;21.50
9125;DHT22;4597;48.730;9.114;2023-06-04T14:02:04;29.30;22.60
9125;DHT22;4597;48.730;9.114;2023-06-04T14:04:29;29.60;20.50
9125;DHT22;4597;48.730;9.114;2023-06-04T14:06:55;30.50;20.30
9125;DHT22;4597;48.730;9.114;2023-06-04T14:09:21;32.00;19.80
9125;DHT22;4597;48.730;9.114;2023-06-04T14:11:46;33.80;17.70
9125;DHT22;4597;48.730;9.114;2023-06-04T14:14:16;35.30;13.90
9125;DHT22;4597;48.730;9.114;2023-06-04T14:16:43;36.40;13.80
9125;DHT22;4597;48.730;9.114;2023-06-04T14:19:08;37.60;11.90
9125;DHT22;4597;48.730;9.114;2023-06-04T14:21:34;38.20;11.10
9125;DHT22;4597;48.730;9.114;2023-06-04T14:24:01;38.80;9.60
9125;DHT22;4597;48.730;9.114;2023-06-04T14:26:27;38.90;9.20
9125;DHT22;4597;48.730;9.114;2023-06-04T14:28:53;39.40;7.80
9125;DHT22;4597;48.730;9.114;2023-06-04T14:31:18;39.80;7.50
9125;DHT22;4597;48.730;9.114;2023-06-04T14:33:44;40.40;6.70
9125;DHT22;4597;48.730;9.114;2023-06-04T14:36:09;40.10;6.00
9125;DHT22;4597;48.730;9.114;2023-06-04T14:38:35;40.20;5.40
9125;DHT22;4597;48.730;9.114;2023-06-04T14:41:00;39.10;5.90
9125;DHT22;4597;48.730;9.114;2023-06-04T14:43:26;38.00;7.00
9125;DHT22;4597;48.730;9.114;2023-06-04T14:45:51;37.00;8.40
9125;DHT22;4597;48.730;9.114;2023-06-04T14:48:17;36.10;8.60
9125;DHT22;4597;48.730;9.114;2023-06-04T14:50:43;35.20;8.80
9125;DHT22;4597;48.730;9.114;2023-06-04T14:53:08;34.60;10.50
9125;DHT22;4597;48.730;9.114;2023-06-04T14:55:35;34.50;9.40
9125;DHT22;4597;48.730;9.114;2023-06-04T14:58:02;34.20;10.00
9125;DHT22;4597;48.730;9.114;2023-06-04T15:00:31;34.00;9.50
9125;DHT22;4597;48.730;9.114;2023-06-04T15:02:57;33.80;10.50
9125;DHT22;4597;48.730;9.114;2023-06-04T15:05:22;33.80;10.90
9125;DHT22;4597;48.730;9.114;2023-06-04T15:07:48;34.00;10.70
9125;DHT22;4597;48.730;9.114;2023-06-04T15:10:14;34.30;9.70
9125;DHT22;4597;48.730;9.114;2023-06-04T15:12:39;34.40;9.70
9125;DHT22;4597;48.730;9.114;2023-06-04T15:15:06;34.10;9.50
9125;DHT22;4597;48.730;9.114;2023-06-04T15:17:34;33.70;9.80
9125;DHT22;4597;48.730;9.114;2023-06-04T15:19:59;33.70;10.30
9125;DHT22;4597;48.730;9.114;2023-06-04T15:22:25;33.90;10.10
9125;DHT22;4597;48.730;9.114;2023-06-04T15:24:52;34.00;10.20
9125;DHT22;4597;48.730;9.114;2023-06-04T15:27:18;34.30;10.40
9125;DHT22;4597;48.730;9.114;2023-06-04T15:29:44;34.60;10.20
9125;DHT22;4597;48.730;9.114;2023-06-04T15:32:10;34.80;9.40
9125;DHT22;4597;48.730;9.114;2023-06-04T15:34:35;34.80;8.90
9125;DHT22;4597;48.730;9.114;2023-06-04T15:37:01;34.70;9.30
9125;DHT22;4597;48.730;9.114;2023-06-04T15:39:26;35.00;9.20
9125;DHT22;4597;48.730;9.114;2023-06-04T15:41:52;35.00;9.40
9125;DHT22;4597;48.730;9.114;2023-06-04T15:44:17;34.90;9.40
9125;DHT22;4597;48.730;9.114;2023-06-04T15:46:43;35.00;9.60
9125;DHT22;4597;48.730;9.114;2023-06-04T15:49:09;34.90;9.50
9125;DHT22;4597;48.730;9.114;2023-06-04T15:51:41;35.20;9.20
9125;DHT22;4597;48.730;9.114;2023-06-04T15:54:06;35.20;9.20
9125;DHT22;4597;48.730;9.114;2023-06-04T15:56:32;35.40;9.30
9125;DHT22;4597;48.730;9.114;2023-06-04T15:58:57;35.10;9.10
9125;DHT22;4597;48.730;9.114;2023-06-04T16:01:23;35.10;9.30
9125;DHT22;4597;48.730;9.114;2023-06-04T16:03:50;35.30;9.50